sensor_id;sensor_type;location;lat;lon;timestamp;P1;durP1;ratioP1;P2;durP2;ratioP2
38465;SDS011;24244;51.950;5.902;2022-07-31T00:00:43;7.68;;;2.70;;
38465;SDS011;24244;51.950;5.902;2022-07-31T00:03:10;6.80;;;2.75;;
38465;SDS011;24244;51.950;5.902;2022-07-31T00:05:37;6.22;;;2.55;;
38465;SDS011;24244;51.950;5.902;2022-07-31T00:08:08;6.50;;;2.83;;
38465;SDS011;24244;51.950;5.902;2022-07-31T00:10:35;6.07;;;2.75;;
38465;SDS011;24244;51.950;5.902;2022-07-31T00:13:00;7.72;;;3.05;;
38465;SDS011;24244;51.950;5.902;2022-07-31T00:15:27;5.95;;;2.67;;
38465;SDS011;24244;51.950;5.902;2022-07-31T00:17:53;6.80;;;2.83;;
38465;SDS011;24244;51.950;5.902;2022-07-31T00:20:19;6.13;;;2.70;;
38465;SDS011;24244;51.950;5.902;2022-07-31T00:22:45;7.63;;;2.80;;
38465;SDS011;24244;51.950;5.902;2022-07-31T00:25:14;6.18;;;2.80;;
38465;SDS011;24244;51.950;5.902;2022-07-31T00:27:42;6.10;;;2.78;;
38465;SDS011;24244;51.950;5.902;2022-07-31T00:30:07;8.00;;;2.85;;
38465;SDS011;24244;51.950;5.902;2022-07-31T00:32:34;6.57;;;2.80;;
38465;SDS011;24244;51.950;5.902;2022-07-31T00:34:59;7.18;;;3.20;;
38465;SDS011;24244;51.950;5.902;2022-07-31T00:37:25;7.70;;;2.90;;
38465;SDS011;24244;51.950;5.902;2022-07-31T00:39:53;7.25;;;2.90;;
38465;SDS011;24244;51.950;5.902;2022-07-31T00:42:21;5.75;;;2.75;;
38465;SDS011;24244;51.950;5.902;2022-07-31T00:44:49;7.18;;;2.72;;
38465;SDS011;24244;51.950;5.902;2022-07-31T00:47:15;7.43;;;3.00;;
38465;SDS011;24244;51.950;5.902;2022-07-31T00:49:42;6.80;;;2.95;;
38465;SDS011;24244;51.950;5.902;2022-07-31T00:52:08;7.03;;;3.05;;
38465;SDS011;24244;51.950;5.902;2022-07-31T00:54:34;7.07;;;3.25;;
38465;SDS011;24244;51.950;5.902;2022-07-31T00:57:00;7.43;;;3.35;;
38465;SDS011;24244;51.950;5.902;2022-07-31T00:59:29;7.20;;;3.00;;
38465;SDS011;24244;51.950;5.902;2022-07-31T01:01:56;6.13;;;3.07;;
38465;SDS011;24244;51.950;5.902;2022-07-31T01:04:22;6.18;;;3.10;;
38465;SDS011;24244;51.950;5.902;2022-07-31T01:06:48;7.38;;;3.00;;
38465;SDS011;24244;51.950;5.902;2022-07-31T01:09:15;8.73;;;3.28;;
38465;SDS011;24244;51.950;5.902;2022-07-31T01:11:44;6.50;;;3.00;;
38465;SDS011;24244;51.950;5.902;2022-07-31T01:14:15;6.95;;;3.10;;
38465;SDS011;24244;51.950;5.902;2022-07-31T01:16:45;6.45;;;3.10;;
38465;SDS011;24244;51.950;5.902;2022-07-31T01:19:14;6.80;;;3.10;;
38465;SDS011;24244;51.950;5.902;2022-07-31T01:21:48;7.10;;;3.10;;
38465;SDS011;24244;51.950;5.902;2022-07-31T01:24:28;6.70;;;3.22;;
38465;SDS011;24244;51.950;5.902;2022-07-31T01:27:09;6.68;;;2.85;;
38465;SDS011;24244;51.950;5.902;2022-07-31T01:29:41;6.63;;;3.35;;
38465;SDS011;24244;51.950;5.902;2022-07-31T01:32:12;7.75;;;3.33;;
38465;SDS011;24244;51.950;5.902;2022-07-31T01:34:45;6.35;;;3.03;;
38465;SDS011;24244;51.950;5.902;2022-07-31T01:37:17;8.07;;;3.10;;
38465;SDS011;24244;51.950;5.902;2022-07-31T01:39:48;6.95;;;3.40;;
38465;SDS011;24244;51.950;5.902;2022-07-31T01:42:17;7.25;;;3.40;;
38465;SDS011;24244;51.950;5.902;2022-07-31T01:44:47;7.13;;;3.30;;
38465;SDS011;24244;51.950;5.902;2022-07-31T01:47:18;9.18;;;3.38;;
38465;SDS011;24244;51.950;5.902;2022-07-31T01:49:45;7.45;;;3.53;;
38465;SDS011;24244;51.950;5.902;2022-07-31T01:52:14;6.40;;;3.30;;
38465;SDS011;24244;51.950;5.902;2022-07-31T01:54:41;7.45;;;3.13;;
38465;SDS011;24244;51.950;5.902;2022-07-31T01:59:35;7.45;;;3.00;;
38465;SDS011;24244;51.950;5.902;2022-07-31T02:02:05;8.10;;;3.20;;
38465;SDS011;24244;51.950;5.902;2022-07-31T02:04:31;6.35;;;3.25;;
38465;SDS011;24244;51.950;5.902;2022-07-31T02:06:58;7.10;;;3.30;;
38465;SDS011;24244;51.950;5.902;2022-07-31T02:09:25;7.03;;;3.17;;
38465;SDS011;24244;51.950;5.902;2022-07-31T02:11:53;6.70;;;3.35;;
38465;SDS011;24244;51.950;5.902;2022-07-31T02:14:24;8.52;;;3.40;;
38465;SDS011;24244;51.950;5.902;2022-07-31T02:16:52;7.47;;;3.28;;
38465;SDS011;24244;51.950;5.902;2022-07-31T02:19:21;7.90;;;3.28;;
38465;SDS011;24244;51.950;5.902;2022-07-31T02:21:48;7.82;;;3.72;;
38465;SDS011;24244;51.950;5.902;2022-07-31T02:24:14;9.07;;;3.30;;
38465;SDS011;24244;51.950;5.902;2022-07-31T02:26:42;7.07;;;3.20;;
38465;SDS011;24244;51.950;5.902;2022-07-31T02:29:09;7.05;;;3.22;;
38465;SDS011;24244;51.950;5.902;2022-07-31T02:31:37;6.38;;;3.22;;
38465;SDS011;24244;51.950;5.902;2022-07-31T02:34:05;7.28;;;3.20;;
38465;SDS011;24244;51.950;5.902;2022-07-31T02:36:34;6.88;;;3.38;;
38465;SDS011;24244;51.950;5.902;2022-07-31T02:39:01;6.93;;;3.20;;
38465;SDS011;24244;51.950;5.902;2022-07-31T02:41:30;6.60;;;3.10;;
38465;SDS011;24244;51.950;5.902;2022-07-31T02:43:56;7.20;;;2.97;;
38465;SDS011;24244;51.950;5.902;2022-07-31T02:46:22;7.28;;;3.20;;
38465;SDS011;24244;51.950;5.902;2022-07-31T02:48:49;6.43;;;3.33;;
38465;SDS011;24244;51.950;5.902;2022-07-31T02:51:16;7.40;;;3.17;;
38465;SDS011;24244;51.950;5.902;2022-07-31T02:53:43;7.05;;;3.30;;
38465;SDS011;24244;51.950;5.902;2022-07-31T02:56:09;6.30;;;3.17;;
38465;SDS011;24244;51.950;5.902;2022-07-31T02:58:36;5.93;;;3.25;;
38465;SDS011;24244;51.950;5.902;2022-07-31T03:01:03;7.90;;;3.33;;
38465;SDS011;24244;51.950;5.902;2022-07-31T03:03:30;7.20;;;3.30;;
38465;SDS011;24244;51.950;5.902;2022-07-31T03:05:55;7.93;;;3.50;;
38465;SDS011;24244;51.950;5.902;2022-07-31T03:08:22;5.65;;;3.00;;
38465;SDS011;24244;51.950;5.902;2022-07-31T03:10:49;7.22;;;3.40;;
38465;SDS011;24244;51.950;5.902;2022-07-31T03:13:15;9.05;;;3.40;;
38465;SDS011;24244;51.950;5.902;2022-07-31T03:15:43;6.80;;;3.33;;
38465;SDS011;24244;51.950;5.902;2022-07-31T03:18:10;5.80;;;3.05;;
38465;SDS011;24244;51.950;5.902;2022-07-31T03:20:40;8.50;;;3.55;;
38465;SDS011;24244;51.950;5.902;2022-07-31T03:23:07;7.43;;;3.50;;
38465;SDS011;24244;51.950;5.902;2022-07-31T03:25:36;7.50;;;3.58;;
38465;SDS011;24244;51.950;5.902;2022-07-31T03:28:03;6.55;;;3.58;;
38465;SDS011;24244;51.950;5.902;2022-07-31T03:30:29;6.38;;;3.22;;
38465;SDS011;24244;51.950;5.902;2022-07-31T03:32:55;7.28;;;3.75;;
38465;SDS011;24244;51.950;5.902;2022-07-31T03:35:21;7.53;;;3.97;;
38465;SDS011;24244;51.950;5.902;2022-07-31T03:37:48;7.47;;;3.90;;
38465;SDS011;24244;51.950;5.902;2022-07-31T03:40:14;7.15;;;3.80;;
38465;SDS011;24244;51.950;5.902;2022-07-31T03:42:40;7.30;;;3.72;;
38465;SDS011;24244;51.950;5.902;2022-07-31T03:45:08;6.65;;;3.70;;
38465;SDS011;24244;51.950;5.902;2022-07-31T03:50:01;8.55;;;3.97;;
38465;SDS011;24244;51.950;5.902;2022-07-31T03:52:27;7.47;;;3.75;;
38465;SDS011;24244;51.950;5.902;2022-07-31T03:54:53;8.38;;;4.38;;
38465;SDS011;24244;51.950;5.902;2022-07-31T03:57:19;8.60;;;4.78;;
38465;SDS011;24244;51.950;5.902;2022-07-31T03:59:46;7.70;;;4.57;;
38465;SDS011;24244;51.950;5.902;2022-07-31T04:02:14;8.63;;;5.20;;
38465;SDS011;24244;51.950;5.902;2022-07-31T04:04:44;9.82;;;6.10;;
38465;SDS011;24244;51.950;5.902;2022-07-31T04:07:09;10.15;;;7.07;;
38465;SDS011;24244;51.950;5.902;2022-07-31T04:09:35;9.65;;;6.25;;
38465;SDS011;24244;51.950;5.902;2022-07-31T04:12:02;8.95;;;6.43;;
38465;SDS011;24244;51.950;5.902;2022-07-31T04:14:29;11.93;;;6.88;;
38465;SDS011;24244;51.950;5.902;2022-07-31T04:16:54;10.80;;;6.90;;
38465;SDS011;24244;51.950;5.902;2022-07-31T04:19:21;9.48;;;6.30;;
38465;SDS011;24244;51.950;5.902;2022-07-31T04:21:47;11.07;;;7.70;;
38465;SDS011;24244;51.950;5.902;2022-07-31T04:24:14;10.90;;;7.28;;
38465;SDS011;24244;51.950;5.902;2022-07-31T04:26:42;13.77;;;7.18;;
38465;SDS011;24244;51.950;5.902;2022-07-31T04:29:08;11.18;;;7.35;;
38465;SDS011;24244;51.950;5.902;2022-07-31T04:31:35;10.93;;;7.25;;
38465;SDS011;24244;51.950;5.902;2022-07-31T04:34:04;10.70;;;6.78;;
38465;SDS011;24244;51.950;5.902;2022-07-31T04:36:31;11.43;;;7.13;;
38465;SDS011;24244;51.950;5.902;2022-07-31T04:38:57;10.05;;;6.38;;
38465;SDS011;24244;51.950;5.902;2022-07-31T04:41:27;11.10;;;6.93;;
38465;SDS011;24244;51.950;5.902;2022-07-31T04:43:58;10.95;;;6.78;;
38465;SDS011;24244;51.950;5.902;2022-07-31T04:46:33;11.90;;;7.03;;
38465;SDS011;24244;51.950;5.902;2022-07-31T04:48:59;11.05;;;6.80;;
38465;SDS011;24244;51.950;5.902;2022-07-31T04:51:25;10.55;;;6.30;;
38465;SDS011;24244;51.950;5.902;2022-07-31T04:53:52;11.40;;;6.70;;
38465;SDS011;24244;51.950;5.902;2022-07-31T04:56:19;9.98;;;6.45;;
38465;SDS011;24244;51.950;5.902;2022-07-31T04:59:02;9.52;;;5.78;;
38465;SDS011;24244;51.950;5.902;2022-07-31T05:01:29;9.90;;;5.60;;
38465;SDS011;24244;51.950;5.902;2022-07-31T05:03:56;10.18;;;5.93;;
38465;SDS011;24244;51.950;5.902;2022-07-31T05:06:30;10.50;;;6.00;;
38465;SDS011;24244;51.950;5.902;2022-07-31T05:08:59;9.20;;;5.80;;
38465;SDS011;24244;51.950;5.902;2022-07-31T05:11:26;12.68;;;6.10;;
38465;SDS011;24244;51.950;5.902;2022-07-31T05:13:54;11.70;;;6.18;;
38465;SDS011;24244;51.950;5.902;2022-07-31T05:18:47;8.85;;;5.50;;
38465;SDS011;24244;51.950;5.902;2022-07-31T05:21:14;11.48;;;6.60;;
38465;SDS011;24244;51.950;5.902;2022-07-31T05:23:40;10.32;;;6.72;;
38465;SDS011;24244;51.950;5.902;2022-07-31T05:26:08;12.10;;;6.40;;
38465;SDS011;24244;51.950;5.902;2022-07-31T05:28:35;11.48;;;6.85;;
38465;SDS011;24244;51.950;5.902;2022-07-31T05:31:00;11.88;;;6.70;;
38465;SDS011;24244;51.950;5.902;2022-07-31T05:33:26;10.18;;;6.35;;
38465;SDS011;24244;51.950;5.902;2022-07-31T05:35:52;11.65;;;6.82;;
38465;SDS011;24244;51.950;5.902;2022-07-31T05:38:18;12.00;;;7.90;;
38465;SDS011;24244;51.950;5.902;2022-07-31T05:40:46;12.23;;;8.13;;
38465;SDS011;24244;51.950;5.902;2022-07-31T05:43:14;13.05;;;8.05;;
38465;SDS011;24244;51.950;5.902;2022-07-31T05:45:39;11.98;;;7.63;;
38465;SDS011;24244;51.950;5.902;2022-07-31T05:48:05;12.07;;;7.50;;
38465;SDS011;24244;51.950;5.902;2022-07-31T05:50:31;12.90;;;7.93;;
38465;SDS011;24244;51.950;5.902;2022-07-31T05:52:58;12.38;;;8.60;;
38465;SDS011;24244;51.950;5.902;2022-07-31T05:55:23;12.75;;;8.52;;
38465;SDS011;24244;51.950;5.902;2022-07-31T05:57:49;12.95;;;8.88;;
38465;SDS011;24244;51.950;5.902;2022-07-31T06:00:16;12.40;;;8.40;;
38465;SDS011;24244;51.950;5.902;2022-07-31T06:02:43;14.30;;;7.82;;
38465;SDS011;24244;51.950;5.902;2022-07-31T06:05:10;12.63;;;8.57;;
38465;SDS011;24244;51.950;5.902;2022-07-31T06:07:36;12.68;;;8.95;;
38465;SDS011;24244;51.950;5.902;2022-07-31T06:10:02;14.73;;;9.20;;
38465;SDS011;24244;51.950;5.902;2022-07-31T06:12:29;13.48;;;9.18;;
38465;SDS011;24244;51.950;5.902;2022-07-31T06:14:54;14.95;;;9.00;;
38465;SDS011;24244;51.950;5.902;2022-07-31T06:17:21;12.18;;;8.60;;
38465;SDS011;24244;51.950;5.902;2022-07-31T06:19:47;12.98;;;8.77;;
38465;SDS011;24244;51.950;5.902;2022-07-31T06:22:12;14.25;;;9.63;;
38465;SDS011;24244;51.950;5.902;2022-07-31T06:24:38;14.27;;;9.85;;
38465;SDS011;24244;51.950;5.902;2022-07-31T06:27:04;15.00;;;10.38;;
38465;SDS011;24244;51.950;5.902;2022-07-31T06:29:29;15.27;;;10.10;;
38465;SDS011;24244;51.950;5.902;2022-07-31T06:31:56;14.07;;;10.05;;
38465;SDS011;24244;51.950;5.902;2022-07-31T06:34:23;14.20;;;10.50;;
38465;SDS011;24244;51.950;5.902;2022-07-31T06:36:49;14.50;;;10.15;;
38465;SDS011;24244;51.950;5.902;2022-07-31T06:39:15;14.68;;;10.48;;
38465;SDS011;24244;51.950;5.902;2022-07-31T06:41:41;16.38;;;9.93;;
38465;SDS011;24244;51.950;5.902;2022-07-31T06:44:12;13.60;;;9.90;;
38465;SDS011;24244;51.950;5.902;2022-07-31T06:46:38;15.75;;;10.93;;
38465;SDS011;24244;51.950;5.902;2022-07-31T06:49:04;13.65;;;10.27;;
38465;SDS011;24244;51.950;5.902;2022-07-31T06:51:31;14.48;;;10.43;;
38465;SDS011;24244;51.950;5.902;2022-07-31T06:53:57;15.23;;;10.55;;
38465;SDS011;24244;51.950;5.902;2022-07-31T06:56:22;15.93;;;11.45;;
38465;SDS011;24244;51.950;5.902;2022-07-31T06:58:48;14.55;;;10.95;;
38465;SDS011;24244;51.950;5.902;2022-07-31T07:01:14;17.55;;;11.93;;
38465;SDS011;24244;51.950;5.902;2022-07-31T07:03:39;15.20;;;11.13;;
38465;SDS011;24244;51.950;5.902;2022-07-31T07:06:05;16.13;;;10.05;;
38465;SDS011;24244;51.950;5.902;2022-07-31T07:08:32;16.35;;;10.93;;
38465;SDS011;24244;51.950;5.902;2022-07-31T07:10:59;15.23;;;10.45;;
38465;SDS011;24244;51.950;5.902;2022-07-31T07:13:25;17.63;;;10.85;;
38465;SDS011;24244;51.950;5.902;2022-07-31T07:15:50;15.45;;;10.70;;
38465;SDS011;24244;51.950;5.902;2022-07-31T07:18:16;14.90;;;10.82;;
38465;SDS011;24244;51.950;5.902;2022-07-31T07:20:42;14.93;;;10.45;;
38465;SDS011;24244;51.950;5.902;2022-07-31T07:23:08;14.63;;;10.95;;
38465;SDS011;24244;51.950;5.902;2022-07-31T07:25:35;18.05;;;11.10;;
38465;SDS011;24244;51.950;5.902;2022-07-31T07:28:00;17.10;;;11.68;;
38465;SDS011;24244;51.950;5.902;2022-07-31T07:30:26;16.45;;;10.60;;
38465;SDS011;24244;51.950;5.902;2022-07-31T07:32:52;15.63;;;10.90;;
38465;SDS011;24244;51.950;5.902;2022-07-31T07:35:18;14.45;;;10.40;;
38465;SDS011;24244;51.950;5.902;2022-07-31T07:37:44;15.35;;;10.43;;
38465;SDS011;24244;51.950;5.902;2022-07-31T07:40:09;13.55;;;10.07;;
38465;SDS011;24244;51.950;5.902;2022-07-31T07:42:37;15.70;;;10.25;;
38465;SDS011;24244;51.950;5.902;2022-07-31T07:45:03;14.85;;;10.02;;
38465;SDS011;24244;51.950;5.902;2022-07-31T07:47:29;13.55;;;9.50;;
38465;SDS011;24244;51.950;5.902;2022-07-31T07:49:55;15.43;;;9.73;;
38465;SDS011;24244;51.950;5.902;2022-07-31T07:52:20;13.90;;;9.00;;
38465;SDS011;24244;51.950;5.902;2022-07-31T07:54:46;13.25;;;8.93;;
38465;SDS011;24244;51.950;5.902;2022-07-31T07:57:13;12.95;;;9.15;;
38465;SDS011;24244;51.950;5.902;2022-07-31T07:59:41;14.32;;;9.32;;
38465;SDS011;24244;51.950;5.902;2022-07-31T08:02:07;13.38;;;9.30;;
38465;SDS011;24244;51.950;5.902;2022-07-31T08:04:32;15.93;;;9.73;;
38465;SDS011;24244;51.950;5.902;2022-07-31T08:06:58;15.02;;;9.45;;
38465;SDS011;24244;51.950;5.902;2022-07-31T08:09:23;14.98;;;9.57;;
38465;SDS011;24244;51.950;5.902;2022-07-31T08:11:50;13.40;;;8.60;;
38465;SDS011;24244;51.950;5.902;2022-07-31T08:14:16;14.57;;;9.43;;
38465;SDS011;24244;51.950;5.902;2022-07-31T08:16:43;16.15;;;9.65;;
38465;SDS011;24244;51.950;5.902;2022-07-31T08:19:10;15.77;;;9.57;;
38465;SDS011;24244;51.950;5.902;2022-07-31T08:21:36;13.02;;;8.73;;
38465;SDS011;24244;51.950;5.902;2022-07-31T08:24:03;14.98;;;9.88;;
38465;SDS011;24244;51.950;5.902;2022-07-31T08:26:30;14.52;;;9.88;;
38465;SDS011;24244;51.950;5.902;2022-07-31T08:29:16;16.55;;;9.60;;
38465;SDS011;24244;51.950;5.902;2022-07-31T08:31:43;14.40;;;8.88;;
38465;SDS011;24244;51.950;5.902;2022-07-31T08:34:09;13.10;;;8.50;;
38465;SDS011;24244;51.950;5.902;2022-07-31T08:36:35;15.60;;;9.00;;
38465;SDS011;24244;51.950;5.902;2022-07-31T08:39:01;13.45;;;8.40;;
38465;SDS011;24244;51.950;5.902;2022-07-31T08:41:28;12.75;;;8.43;;
38465;SDS011;24244;51.950;5.902;2022-07-31T08:43:53;13.02;;;7.45;;
38465;SDS011;24244;51.950;5.902;2022-07-31T08:46:21;13.88;;;7.90;;
38465;SDS011;24244;51.950;5.902;2022-07-31T08:48:49;12.27;;;8.00;;
38465;SDS011;24244;51.950;5.902;2022-07-31T08:51:19;12.63;;;8.20;;
38465;SDS011;24244;51.950;5.902;2022-07-31T08:53:47;15.30;;;8.57;;
38465;SDS011;24244;51.950;5.902;2022-07-31T08:56:15;13.65;;;8.27;;
38465;SDS011;24244;51.950;5.902;2022-07-31T08:58:41;14.13;;;8.55;;
38465;SDS011;24244;51.950;5.902;2022-07-31T09:01:09;13.80;;;9.40;;
38465;SDS011;24244;51.950;5.902;2022-07-31T09:03:35;14.43;;;8.93;;
38465;SDS011;24244;51.950;5.902;2022-07-31T09:06:02;16.33;;;8.65;;
38465;SDS011;24244;51.950;5.902;2022-07-31T09:08:30;16.52;;;9.68;;
38465;SDS011;24244;51.950;5.902;2022-07-31T09:11:03;13.57;;;8.27;;
38465;SDS011;24244;51.950;5.902;2022-07-31T09:13:30;13.98;;;8.02;;
38465;SDS011;24244;51.950;5.902;2022-07-31T09:15:58;13.05;;;8.07;;
38465;SDS011;24244;51.950;5.902;2022-07-31T09:18:25;13.70;;;8.10;;
38465;SDS011;24244;51.950;5.902;2022-07-31T09:20:54;12.73;;;8.00;;
38465;SDS011;24244;51.950;5.902;2022-07-31T09:23:24;13.80;;;7.45;;
38465;SDS011;24244;51.950;5.902;2022-07-31T09:25:52;14.70;;;8.32;;
38465;SDS011;24244;51.950;5.902;2022-07-31T09:28:19;13.70;;;8.10;;
38465;SDS011;24244;51.950;5.902;2022-07-31T09:30:54;13.73;;;8.10;;
38465;SDS011;24244;51.950;5.902;2022-07-31T09:33:20;13.20;;;8.32;;
38465;SDS011;24244;51.950;5.902;2022-07-31T09:35:47;13.57;;;7.88;;
38465;SDS011;24244;51.950;5.902;2022-07-31T09:38:15;12.98;;;7.60;;
38465;SDS011;24244;51.950;5.902;2022-07-31T09:40:48;17.38;;;9.32;;
38465;SDS011;24244;51.950;5.902;2022-07-31T09:43:15;14.65;;;9.02;;
38465;SDS011;24244;51.950;5.902;2022-07-31T09:45:44;13.35;;;8.32;;
38465;SDS011;24244;51.950;5.902;2022-07-31T09:48:30;14.02;;;8.35;;
38465;SDS011;24244;51.950;5.902;2022-07-31T09:51:00;15.47;;;9.83;;
38465;SDS011;24244;51.950;5.902;2022-07-31T09:53:37;13.60;;;8.75;;
38465;SDS011;24244;51.950;5.902;2022-07-31T09:56:05;13.30;;;8.50;;
38465;SDS011;24244;51.950;5.902;2022-07-31T09:58:34;14.02;;;8.68;;
38465;SDS011;24244;51.950;5.902;2022-07-31T10:01:01;15.18;;;8.80;;
38465;SDS011;24244;51.950;5.902;2022-07-31T10:03:29;15.68;;;9.70;;
38465;SDS011;24244;51.950;5.902;2022-07-31T10:05:55;15.82;;;10.20;;
38465;SDS011;24244;51.950;5.902;2022-07-31T10:08:21;15.95;;;9.85;;
38465;SDS011;24244;51.950;5.902;2022-07-31T10:10:47;16.50;;;10.38;;
38465;SDS011;24244;51.950;5.902;2022-07-31T10:13:14;17.02;;;10.73;;
38465;SDS011;24244;51.950;5.902;2022-07-31T10:15:44;17.55;;;11.27;;
38465;SDS011;24244;51.950;5.902;2022-07-31T10:18:13;18.80;;;12.00;;
38465;SDS011;24244;51.950;5.902;2022-07-31T10:20:41;17.42;;;11.82;;
38465;SDS011;24244;51.950;5.902;2022-07-31T10:23:08;17.35;;;11.93;;
38465;SDS011;24244;51.950;5.902;2022-07-31T10:25:40;20.15;;;13.73;;
38465;SDS011;24244;51.950;5.902;2022-07-31T10:28:12;18.42;;;11.82;;
38465;SDS011;24244;51.950;5.902;2022-07-31T10:30:39;18.63;;;12.13;;
38465;SDS011;24244;51.950;5.902;2022-07-31T10:33:05;19.58;;;12.63;;
38465;SDS011;24244;51.950;5.902;2022-07-31T10:35:31;18.95;;;13.35;;
38465;SDS011;24244;51.950;5.902;2022-07-31T10:38:05;20.83;;;12.48;;
38465;SDS011;24244;51.950;5.902;2022-07-31T10:40:39;19.83;;;13.88;;
38465;SDS011;24244;51.950;5.902;2022-07-31T10:43:14;18.48;;;12.80;;
38465;SDS011;24244;51.950;5.902;2022-07-31T10:45:46;19.83;;;13.98;;
38465;SDS011;24244;51.950;5.902;2022-07-31T10:48:13;17.88;;;13.40;;
38465;SDS011;24244;51.950;5.902;2022-07-31T10:50:39;18.20;;;13.50;;
38465;SDS011;24244;51.950;5.902;2022-07-31T10:53:05;19.00;;;13.85;;
38465;SDS011;24244;51.950;5.902;2022-07-31T10:55:32;19.85;;;13.73;;
38465;SDS011;24244;51.950;5.902;2022-07-31T10:58:05;20.30;;;14.23;;
38465;SDS011;24244;51.950;5.902;2022-07-31T11:00:31;19.13;;;14.55;;
38465;SDS011;24244;51.950;5.902;2022-07-31T11:02:58;18.65;;;13.85;;
38465;SDS011;24244;51.950;5.902;2022-07-31T11:05:23;18.02;;;13.55;;
38465;SDS011;24244;51.950;5.902;2022-07-31T11:07:58;19.80;;;14.13;;
38465;SDS011;24244;51.950;5.902;2022-07-31T11:10:25;18.20;;;13.35;;
38465;SDS011;24244;51.950;5.902;2022-07-31T11:12:57;18.98;;;13.30;;
38465;SDS011;24244;51.950;5.902;2022-07-31T11:15:24;18.00;;;13.88;;
38465;SDS011;24244;51.950;5.902;2022-07-31T11:17:50;20.25;;;15.07;;
38465;SDS011;24244;51.950;5.902;2022-07-31T11:20:18;19.75;;;13.93;;
38465;SDS011;24244;51.950;5.902;2022-07-31T11:22:52;19.52;;;15.00;;
38465;SDS011;24244;51.950;5.902;2022-07-31T11:25:19;20.50;;;15.73;;
38465;SDS011;24244;51.950;5.902;2022-07-31T11:27:45;19.63;;;15.30;;
38465;SDS011;24244;51.950;5.902;2022-07-31T11:30:11;18.98;;;14.77;;
38465;SDS011;24244;51.950;5.902;2022-07-31T11:32:37;18.80;;;14.80;;
38465;SDS011;24244;51.950;5.902;2022-07-31T11:35:03;18.48;;;14.57;;
38465;SDS011;24244;51.950;5.902;2022-07-31T11:37:30;17.50;;;14.45;;
38465;SDS011;24244;51.950;5.902;2022-07-31T11:39:56;17.83;;;13.75;;
38465;SDS011;24244;51.950;5.902;2022-07-31T11:42:23;20.13;;;16.08;;
38465;SDS011;24244;51.950;5.902;2022-07-31T11:44:51;19.38;;;14.02;;
38465;SDS011;24244;51.950;5.902;2022-07-31T11:47:18;15.82;;;14.07;;
38465;SDS011;24244;51.950;5.902;2022-07-31T11:49:44;17.33;;;14.25;;
38465;SDS011;24244;51.950;5.902;2022-07-31T11:52:10;18.35;;;14.50;;
38465;SDS011;24244;51.950;5.902;2022-07-31T11:54:38;16.92;;;14.10;;
38465;SDS011;24244;51.950;5.902;2022-07-31T11:57:04;15.30;;;12.85;;
38465;SDS011;24244;51.950;5.902;2022-07-31T11:59:30;15.98;;;13.05;;
38465;SDS011;24244;51.950;5.902;2022-07-31T12:02:03;16.17;;;12.73;;
38465;SDS011;24244;51.950;5.902;2022-07-31T12:04:31;15.18;;;12.95;;
38465;SDS011;24244;51.950;5.902;2022-07-31T12:07:00;14.93;;;12.38;;
38465;SDS011;24244;51.950;5.902;2022-07-31T12:09:26;16.48;;;12.77;;
38465;SDS011;24244;51.950;5.902;2022-07-31T12:11:54;15.43;;;13.02;;
38465;SDS011;24244;51.950;5.902;2022-07-31T12:14:28;15.57;;;12.38;;
38465;SDS011;24244;51.950;5.902;2022-07-31T12:16:56;15.95;;;12.77;;
38465;SDS011;24244;51.950;5.902;2022-07-31T12:19:26;14.10;;;11.48;;
38465;SDS011;24244;51.950;5.902;2022-07-31T12:21:52;14.00;;;10.95;;
38465;SDS011;24244;51.950;5.902;2022-07-31T12:24:20;13.45;;;11.00;;
38465;SDS011;24244;51.950;5.902;2022-07-31T12:26:48;13.95;;;11.02;;
38465;SDS011;24244;51.950;5.902;2022-07-31T12:29:17;12.75;;;9.80;;
38465;SDS011;24244;51.950;5.902;2022-07-31T12:31:44;13.77;;;10.53;;
38465;SDS011;24244;51.950;5.902;2022-07-31T12:34:17;13.70;;;10.10;;
38465;SDS011;24244;51.950;5.902;2022-07-31T12:36:55;11.20;;;9.23;;
38465;SDS011;24244;51.950;5.902;2022-07-31T12:39:22;13.07;;;8.98;;
38465;SDS011;24244;51.950;5.902;2022-07-31T12:41:47;12.23;;;9.80;;
38465;SDS011;24244;51.950;5.902;2022-07-31T12:44:13;12.20;;;9.23;;
38465;SDS011;24244;51.950;5.902;2022-07-31T12:46:40;11.52;;;8.93;;
38465;SDS011;24244;51.950;5.902;2022-07-31T12:49:07;10.38;;;8.35;;
38465;SDS011;24244;51.950;5.902;2022-07-31T12:51:35;10.48;;;8.07;;
38465;SDS011;24244;51.950;5.902;2022-07-31T12:54:01;10.07;;;7.18;;
38465;SDS011;24244;51.950;5.902;2022-07-31T12:56:32;10.38;;;7.40;;
38465;SDS011;24244;51.950;5.902;2022-07-31T12:58:57;10.30;;;7.45;;
38465;SDS011;24244;51.950;5.902;2022-07-31T13:01:27;11.32;;;8.38;;
38465;SDS011;24244;51.950;5.902;2022-07-31T13:03:55;10.52;;;8.00;;
38465;SDS011;24244;51.950;5.902;2022-07-31T13:06:26;10.95;;;7.55;;
38465;SDS011;24244;51.950;5.902;2022-07-31T13:08:55;9.68;;;6.80;;
38465;SDS011;24244;51.950;5.902;2022-07-31T13:11:28;10.82;;;6.93;;
38465;SDS011;24244;51.950;5.902;2022-07-31T13:13:57;9.45;;;7.35;;
38465;SDS011;24244;51.950;5.902;2022-07-31T13:16:23;10.45;;;7.07;;
38465;SDS011;24244;51.950;5.902;2022-07-31T13:18:49;10.52;;;7.70;;
38465;SDS011;24244;51.950;5.902;2022-07-31T13:21:16;11.80;;;8.80;;
38465;SDS011;24244;51.950;5.902;2022-07-31T13:23:45;12.55;;;7.90;;
38465;SDS011;24244;51.950;5.902;2022-07-31T13:26:11;10.10;;;7.43;;
38465;SDS011;24244;51.950;5.902;2022-07-31T13:28:37;10.75;;;8.20;;
38465;SDS011;24244;51.950;5.902;2022-07-31T13:31:03;10.10;;;7.53;;
38465;SDS011;24244;51.950;5.902;2022-07-31T13:33:29;10.88;;;7.40;;
38465;SDS011;24244;51.950;5.902;2022-07-31T13:35:54;11.60;;;7.38;;
38465;SDS011;24244;51.950;5.902;2022-07-31T13:38:22;10.70;;;7.78;;
38465;SDS011;24244;51.950;5.902;2022-07-31T13:40:47;10.38;;;7.32;;
38465;SDS011;24244;51.950;5.902;2022-07-31T13:43:33;10.60;;;7.60;;
38465;SDS011;24244;51.950;5.902;2022-07-31T13:46:02;10.88;;;7.65;;
38465;SDS011;24244;51.950;5.902;2022-07-31T13:48:28;10.93;;;8.32;;
38465;SDS011;24244;51.950;5.902;2022-07-31T13:50:54;11.48;;;8.65;;
38465;SDS011;24244;51.950;5.902;2022-07-31T13:53:20;12.80;;;8.55;;
38465;SDS011;24244;51.950;5.902;2022-07-31T13:55:48;10.88;;;7.70;;
38465;SDS011;24244;51.950;5.902;2022-07-31T13:58:15;12.23;;;8.00;;
38465;SDS011;24244;51.950;5.902;2022-07-31T14:00:42;11.00;;;7.57;;
38465;SDS011;24244;51.950;5.902;2022-07-31T14:03:14;11.07;;;8.13;;
38465;SDS011;24244;51.950;5.902;2022-07-31T14:05:39;11.93;;;7.55;;
38465;SDS011;24244;51.950;5.902;2022-07-31T14:08:09;9.80;;;7.13;;
38465;SDS011;24244;51.950;5.902;2022-07-31T14:10:37;11.40;;;7.45;;
38465;SDS011;24244;51.950;5.902;2022-07-31T14:13:03;9.70;;;6.35;;
38465;SDS011;24244;51.950;5.902;2022-07-31T14:15:28;8.70;;;6.10;;
38465;SDS011;24244;51.950;5.902;2022-07-31T14:17:54;9.80;;;6.57;;
38465;SDS011;24244;51.950;5.902;2022-07-31T14:20:20;10.23;;;5.65;;
38465;SDS011;24244;51.950;5.902;2022-07-31T14:22:46;9.30;;;5.50;;
38465;SDS011;24244;51.950;5.902;2022-07-31T14:25:11;9.68;;;5.60;;
38465;SDS011;24244;51.950;5.902;2022-07-31T14:27:38;8.93;;;5.15;;
38465;SDS011;24244;51.950;5.902;2022-07-31T14:30:06;9.73;;;5.18;;
38465;SDS011;24244;51.950;5.902;2022-07-31T14:32:33;8.52;;;5.03;;
38465;SDS011;24244;51.950;5.902;2022-07-31T14:34:59;10.02;;;4.90;;
38465;SDS011;24244;51.950;5.902;2022-07-31T14:37:24;9.07;;;4.82;;
38465;SDS011;24244;51.950;5.902;2022-07-31T14:39:50;8.27;;;4.10;;
38465;SDS011;24244;51.950;5.902;2022-07-31T14:42:19;7.63;;;4.00;;
38465;SDS011;24244;51.950;5.902;2022-07-31T14:44:50;8.77;;;4.22;;